createdAt,value
2018-03-14T00:00:56.924Z,100265.41
2018-03-14T00:03:22.905Z,100278.45
2018-03-14T00:05:48.770Z,100282.73
2018-03-14T00:08:14.640Z,100279.69
2018-03-14T00:10:40.552Z,100285.36
2018-03-14T00:13:06.421Z,100298.42
2018-03-14T00:15:32.285Z,100291.92
2018-03-14T00:17:58.275Z,100301.96
2018-03-14T00:20:24.153Z,100301.10
2018-03-14T00:22:50.023Z,100308.48
2018-03-14T00:25:15.915Z,100311.14
2018-03-14T00:27:41.783Z,100312.02
2018-03-14T00:30:07.646Z,100316.34
2018-03-14T00:32:33.636Z,100308.11
2018-03-14T00:34:59.496Z,100311.63
2018-03-14T00:37:25.367Z,100319.88
2018-03-14T00:39:51.289Z,100316.41
2018-03-14T00:42:17.164Z,100312.50
2018-03-14T00:44:43.055Z,100312.93
2018-03-14T00:47:08.948Z,100320.75
2018-03-14T00:49:34.844Z,100320.78
2018-03-14T00:52:00.733Z,100319.02
2018-03-14T00:54:26.661Z,100323.78
2018-03-14T00:56:52.540Z,100318.58
2018-03-14T00:59:18.404Z,100329.91
2018-03-14T01:01:44.400Z,100328.08
2018-03-14T01:04:10.253Z,100327.25
2018-03-14T01:06:36.240Z,100328.56
2018-03-14T01:09:02.198Z,100325.08
2018-03-14T01:11:28.063Z,100337.68
2018-03-14T01:13:53.928Z,100326.38
2018-03-14T01:16:19.849Z,100331.60
2018-03-14T01:18:45.713Z,100344.63
2018-03-14T01:21:11.597Z,100343.36
2018-03-14T01:23:37.526Z,100344.23
2018-03-14T01:26:03.414Z,100345.48
2018-03-14T01:28:29.304Z,100345.49
2018-03-14T01:30:55.302Z,100348.13
2018-03-14T01:33:21.229Z,100346.40
2018-03-14T01:35:47.112Z,100347.66
2018-03-14T01:38:13.018Z,100345.97
2018-03-14T01:40:38.905Z,100351.17
2018-03-14T01:43:04.779Z,100347.70
2018-03-14T01:45:30.698Z,100354.21
2018-03-14T01:47:56.574Z,100347.74
2018-03-14T01:50:22.454Z,100352.08
2018-03-14T01:52:48.466Z,100357.29
2018-03-14T01:55:14.358Z,100361.16
2018-03-14T01:57:40.229Z,100369.88
2018-03-14T02:00:06.136Z,100365.10
2018-03-14T04:08:49.333Z,100482.30
2018-03-14T04:11:15.193Z,100481.41
2018-03-14T04:13:41.028Z,100489.66
2018-03-14T04:16:06.908Z,100487.04
2018-03-14T04:18:32.760Z,100495.72
2018-03-14T04:20:58.600Z,100490.52
2018-03-14T04:23:24.520Z,100495.31
2018-03-14T04:25:50.374Z,100493.98
2018-03-14T04:28:16.216Z,100497.47
2018-03-14T04:30:42.099Z,100500.94
2018-03-14T04:33:07.936Z,100497.90
2018-03-14T04:35:33.777Z,100504.42
2018-03-14T04:37:59.656Z,100511.80
2018-03-14T04:40:25.513Z,100510.51
2018-03-14T04:42:51.356Z,100514.39
2018-03-14T04:45:17.241Z,100511.80
2018-03-14T04:47:43.084Z,100514.41
2018-03-14T04:50:08.921Z,100516.98
2018-03-14T04:52:34.885Z,100514.84
2018-03-14T04:55:00.753Z,100511.34
2018-03-14T04:57:26.604Z,100516.11
2018-03-14T04:59:52.494Z,100518.74
2018-03-14T05:02:18.363Z,100520.02
2018-03-14T05:04:44.196Z,100521.34
2018-03-14T05:07:10.093Z,100528.30
2018-03-14T05:09:36.060Z,100519.61
2018-03-14T05:12:01.915Z,100525.25
2018-03-14T05:14:27.804Z,100540.00
2018-03-14T05:16:53.643Z,100538.71
2018-03-14T05:19:19.485Z,100538.28
2018-03-14T05:21:45.364Z,100541.30
2018-03-14T05:24:11.204Z,100540.02
2018-03-14T05:26:37.045Z,100536.98
2018-03-14T05:29:02.969Z,100549.13
2018-03-14T05:31:28.824Z,100546.09
2018-03-14T05:36:57.222Z,100552.59
2018-03-14T05:39:23.098Z,100555.62
2018-03-14T05:41:48.973Z,100549.54
2018-03-14T05:44:14.861Z,100560.84
2018-03-14T05:46:40.947Z,100566.90
2018-03-14T05:49:06.795Z,100564.74
2018-03-14T05:51:32.689Z,100571.67
2018-03-14T05:53:58.550Z,100570.39
2018-03-14T05:56:24.397Z,100575.16
2018-03-14T05:58:50.302Z,100567.77
2018-03-14T06:01:16.158Z,100568.64
2018-03-14T06:03:42.010Z,100572.09
2018-03-14T06:06:08.015Z,100576.47
2018-03-14T06:08:34.445Z,100584.27
2018-03-14T06:11:00.357Z,100578.63
2018-03-14T06:13:26.253Z,100586.86
2018-03-14T06:15:52.105Z,100589.05
2018-03-14T06:18:17.969Z,100589.03
2018-03-14T06:20:43.860Z,100587.73
2018-03-14T06:23:09.706Z,100592.95
2018-03-14T06:25:35.567Z,100595.53
2018-03-14T06:28:01.492Z,100599.02
2018-03-14T06:30:27.345Z,100600.75
2018-03-14T06:32:53.196Z,100610.28
2018-03-14T06:35:19.077Z,100604.65
2018-03-14T06:37:45.020Z,100612.48
2018-03-14T06:40:10.887Z,100618.97
2018-03-14T06:42:36.774Z,100618.97
2018-03-14T06:45:02.657Z,100628.97
2018-03-14T06:47:28.608Z,100620.73
2018-03-14T06:49:54.612Z,100635.47
2018-03-14T06:52:20.706Z,100632.44
2018-03-14T06:54:46.742Z,100636.76
2018-03-14T06:57:13.802Z,100636.31
2018-03-14T06:59:52.084Z,100638.50
2018-03-14T07:02:42.130Z,100634.14
2018-03-14T07:05:20.266Z,100637.17
2018-03-14T07:07:46.193Z,100641.95
2018-03-14T07:10:12.132Z,100651.48
2018-03-14T07:12:38.985Z,100644.13
2018-03-14T07:15:05.006Z,100654.09
2018-03-14T07:17:30.867Z,100652.77
2018-03-14T07:19:56.724Z,100650.16
2018-03-14T07:22:22.605Z,100653.66
2018-03-14T07:24:48.508Z,100655.81
2018-03-14T07:27:14.440Z,100660.60
2018-03-14T07:29:40.309Z,100657.95
2018-03-14T07:32:06.197Z,100659.66
2018-03-14T07:34:32.055Z,100664.88
2018-03-14T07:36:58.145Z,100664.00
2018-03-14T07:39:24.084Z,100667.05
2018-03-14T07:41:49.936Z,100670.06
2018-03-14T07:44:16.362Z,100673.97
2018-03-14T07:46:42.226Z,100677.48
2018-03-14T07:49:08.078Z,100673.97
2018-03-14T07:51:33.993Z,100686.17
2018-03-14T07:53:59.862Z,100687.05
2018-03-14T07:56:25.731Z,100686.61
2018-03-14T07:58:51.638Z,100682.66
2018-03-14T08:01:17.505Z,100680.50
2018-03-14T08:03:43.377Z,100675.71
2018-03-14T08:06:09.289Z,100689.62
2018-03-14T08:08:35.240Z,100685.28
2018-03-14T08:11:01.119Z,100692.61
2018-03-14T08:13:27.177Z,100688.26
2018-03-14T08:15:52.980Z,100688.66
2018-03-14T08:18:18.837Z,100684.70
2018-03-14T08:20:45.132Z,100693.80
2018-03-14T08:23:11.002Z,100679.88
2018-03-14T08:25:36.952Z,100686.88
2018-03-14T08:28:02.841Z,100688.22
2018-03-14T08:30:28.705Z,100686.98
2018-03-14T08:32:54.552Z,100687.02
2018-03-14T08:35:20.444Z,100693.56
2018-03-14T08:37:46.398Z,100685.30
2018-03-14T08:40:12.254Z,100686.62
2018-03-14T08:42:38.177Z,100697.09
2018-03-14T08:45:04.045Z,100701.02
2018-03-14T08:47:29.896Z,100705.80
2018-03-14T08:49:55.882Z,100704.47
2018-03-14T08:52:21.734Z,100709.25
2018-03-14T08:54:47.610Z,100715.79
2018-03-14T08:57:13.526Z,100716.65
2018-03-14T08:59:39.386Z,100715.81
2018-03-14T09:02:05.347Z,100710.60
2018-03-14T09:04:31.261Z,100717.10
2018-03-14T09:06:57.160Z,100722.31
2018-03-14T09:09:23.021Z,100729.28
2018-03-14T09:11:48.948Z,100727.53
2018-03-14T09:14:14.901Z,100726.23
2018-03-14T09:16:40.760Z,100725.35
2018-03-14T09:19:06.653Z,100724.50
2018-03-14T09:21:32.521Z,100721.45
2018-03-14T09:23:58.388Z,100728.40
2018-03-14T09:26:24.392Z,100724.90
2018-03-14T09:28:50.240Z,100730.53
2018-03-14T09:31:16.125Z,100734.43
2018-03-14T09:33:42.024Z,100734.81
2018-03-14T09:36:07.882Z,100730.95
2018-03-14T09:38:33.828Z,100734.82
2018-03-14T09:40:59.719Z,100736.56
2018-03-14T09:43:25.585Z,100736.94
2018-03-14T09:45:51.433Z,100738.21
2018-03-14T09:48:17.441Z,100749.92
2018-03-14T09:50:43.332Z,100745.17
2018-03-14T09:53:09.196Z,100747.34
2018-03-14T09:55:35.102Z,100742.96
2018-03-14T09:58:00.972Z,100746.47
2018-03-14T10:00:26.816Z,100747.31
2018-03-14T10:02:52.753Z,100756.45
2018-03-14T10:05:18.617Z,100753.84
2018-03-14T10:07:44.469Z,100755.58
2018-03-14T10:10:10.350Z,100760.72
2018-03-14T10:12:36.225Z,100749.80
2018-03-14T10:15:02.074Z,100761.11
2018-03-14T10:17:27.987Z,100752.30
2018-03-14T10:19:53.836Z,100752.79
2018-03-14T10:22:19.700Z,100757.19
2018-03-14T10:24:45.600Z,100753.66
2018-03-14T10:27:11.453Z,100762.36
2018-03-14T10:29:37.311Z,100767.25
2018-03-14T10:32:03.269Z,100765.45
2018-03-14T10:34:29.135Z,100764.11
2018-03-14T10:36:54.982Z,100763.72
2018-03-14T10:39:20.855Z,100762.31
2018-03-14T10:41:46.706Z,100762.27
2018-03-14T10:44:12.566Z,100758.35
2018-03-14T10:46:38.449Z,100768.41
2018-03-14T10:49:04.308Z,100763.56
2018-03-14T10:51:30.165Z,100760.94
2018-03-14T10:53:56.054Z,100760.13
2018-03-14T10:56:21.933Z,100754.84
2018-03-14T10:58:47.844Z,100764.11
2018-03-14T11:01:13.745Z,100754.43
2018-03-14T11:03:43.546Z,100754.92
2018-03-14T11:06:09.425Z,100762.21
2018-03-14T11:08:36.384Z,100765.70
2018-03-14T11:11:02.254Z,100767.91
2018-03-14T11:13:28.109Z,100763.02
2018-03-14T11:15:54.115Z,100770.34
2018-03-14T11:18:19.975Z,100765.95
2018-03-14T11:20:45.833Z,100765.11
2018-03-14T11:23:11.733Z,100762.52
2018-03-14T11:25:37.671Z,100760.83
2018-03-14T11:28:03.668Z,100769.49
2018-03-14T11:30:29.860Z,100767.88
2018-03-14T11:32:55.714Z,100767.98
2018-03-14T11:35:21.578Z,100763.77
2018-03-14T11:37:47.474Z,100765.94
2018-03-14T11:40:13.439Z,100776.83
2018-03-14T11:42:39.288Z,100772.95
2018-03-14T11:45:05.203Z,100773.42
2018-03-14T11:47:31.060Z,100776.46
2018-03-14T11:49:56.904Z,100778.27
2018-03-14T11:52:22.901Z,100786.50
2018-03-14T11:54:48.773Z,100783.05
2018-03-14T11:57:14.639Z,100785.19
2018-03-14T11:59:40.571Z,100788.27
2018-03-14T12:02:06.427Z,100796.52
2018-03-14T12:04:32.382Z,100796.58
2018-03-14T12:06:58.290Z,100799.17
2018-03-14T12:09:24.162Z,100797.88
2018-03-14T12:11:50.035Z,100793.97
2018-03-14T12:14:15.940Z,100794.00
2018-03-14T12:16:41.897Z,100795.30
2018-03-14T12:19:07.750Z,100790.09
2018-03-14T12:21:34.039Z,100792.25
2018-03-14T12:23:59.905Z,100797.03
2018-03-14T12:26:25.761Z,100784.88
2018-03-14T12:28:51.750Z,100785.73
2018-03-14T12:31:17.593Z,100788.77
2018-03-14T12:33:43.460Z,100783.56
2018-03-14T12:36:09.360Z,100784.42
2018-03-14T12:38:35.236Z,100783.56
2018-03-14T12:41:01.174Z,100785.74
2018-03-14T12:43:27.168Z,100790.97
2018-03-14T12:45:53.059Z,100786.16
2018-03-14T12:48:18.900Z,100781.82
2018-03-14T12:50:44.802Z,100788.34
2018-03-14T12:53:10.754Z,100793.11
2018-03-14T12:55:36.623Z,100799.22
2018-03-14T12:58:02.540Z,100785.72
2018-03-14T13:00:28.408Z,100788.77
2018-03-14T13:02:54.274Z,100792.25
2018-03-14T13:05:20.261Z,100793.99
2018-03-14T13:07:46.116Z,100799.61
2018-03-14T13:10:11.977Z,100800.46
2018-03-14T13:12:37.878Z,100800.05
2018-03-14T13:15:03.746Z,100800.04
2018-03-14T13:17:29.680Z,100801.79
2018-03-14T13:19:55.737Z,100803.50
2018-03-14T13:22:21.592Z,100802.24
2018-03-14T13:24:47.458Z,100796.16
2018-03-14T13:27:13.352Z,100802.22
2018-03-14T13:29:39.318Z,100803.54
2018-03-14T13:32:05.165Z,100808.77
2018-03-14T13:34:31.061Z,100804.84
2018-03-14T13:36:56.934Z,100807.48
2018-03-14T13:39:22.802Z,100811.38
2018-03-14T13:41:48.793Z,100809.20
2018-03-14T13:44:14.641Z,100814.86
2018-03-14T13:46:40.506Z,100810.50
2018-03-14T13:49:06.419Z,100809.19
2018-03-14T13:51:32.278Z,100810.52
2018-03-14T13:53:58.221Z,100808.77
2018-03-14T13:56:24.449Z,100809.66
2018-03-14T13:58:50.306Z,100807.91
2018-03-14T14:01:16.165Z,100816.60
2018-03-14T14:03:42.093Z,100807.91
2018-03-14T14:06:08.042Z,100813.97
2018-03-14T14:08:33.898Z,100815.27
2018-03-14T14:10:59.809Z,100815.71
2018-03-14T14:13:25.669Z,100815.69
2018-03-14T14:15:51.517Z,100810.48
2018-03-14T14:18:18.585Z,100805.25
2018-03-14T14:20:44.462Z,100810.40
2018-03-14T14:23:10.325Z,100806.95
2018-03-14T14:25:36.221Z,100808.66
2018-03-14T14:28:02.084Z,100810.42
2018-03-14T14:30:28.093Z,100806.51
2018-03-14T14:32:54.013Z,100807.83
2018-03-14T14:35:19.874Z,100807.40
2018-03-14T14:37:45.716Z,100799.13
2018-03-14T14:40:11.616Z,100799.14
2018-03-14T14:42:37.552Z,100803.91
2018-03-14T14:45:03.423Z,100806.97
2018-03-14T14:47:29.325Z,100804.80
2018-03-14T14:49:55.190Z,100812.20
2018-03-14T14:52:21.037Z,100806.98
2018-03-14T14:54:47.032Z,100809.59
2018-03-14T14:57:12.890Z,100807.42
2018-03-14T14:59:38.748Z,100807.42
2018-03-14T15:02:05.098Z,100806.96
2018-03-14T15:04:30.987Z,100799.14
2018-03-14T15:06:56.948Z,100804.80
2018-03-14T15:09:22.862Z,100802.62
2018-03-14T15:11:48.736Z,100796.09
2018-03-14T15:14:14.591Z,100799.16
2018-03-14T15:16:40.490Z,100793.92
2018-03-14T15:19:06.422Z,100800.44
2018-03-14T15:21:32.385Z,100794.38
2018-03-14T15:23:58.218Z,100793.48
2018-03-14T15:26:24.081Z,100790.90
2018-03-14T15:28:49.928Z,100790.47
2018-03-14T15:31:15.831Z,100788.72
2018-03-14T15:33:41.685Z,100793.96
2018-03-14T15:36:07.540Z,100794.39
2018-03-14T15:38:33.441Z,100795.23
2018-03-14T15:40:59.302Z,100788.70
2018-03-14T15:43:25.155Z,100799.57
2018-03-14T15:45:51.077Z,100802.20
2018-03-14T15:48:16.955Z,100800.47
2018-03-14T15:50:42.816Z,100795.23
2018-03-14T15:53:08.714Z,100800.44
2018-03-14T15:55:34.573Z,100796.58
2018-03-14T15:58:00.442Z,100801.78
2018-03-14T16:00:26.352Z,100800.94
2018-03-14T16:02:52.256Z,100802.67
2018-03-14T16:05:18.072Z,100806.14
2018-03-14T16:07:43.973Z,100810.50
2018-03-14T16:10:09.889Z,100805.30
2018-03-14T16:12:35.803Z,100811.37
2018-03-14T16:15:01.709Z,100810.05
2018-03-14T16:17:27.640Z,100814.44
2018-03-14T16:19:53.498Z,100814.88
2018-03-14T16:22:19.414Z,100823.55
2018-03-14T16:24:45.279Z,100820.94
2018-03-14T16:27:11.253Z,100812.27
2018-03-14T16:29:37.270Z,100812.67
2018-03-14T16:32:03.143Z,100816.60
2018-03-14T16:34:29.034Z,100817.01
2018-03-14T16:36:54.933Z,100821.79
2018-03-14T16:39:20.833Z,100823.99
2018-03-14T16:41:46.698Z,100822.67
2018-03-14T16:44:12.597Z,100829.20
2018-03-14T16:46:38.444Z,100834.41
2018-03-14T16:49:04.298Z,100825.27
2018-03-14T16:51:30.213Z,100833.52
2018-03-14T16:53:56.060Z,100839.17
2018-03-14T16:56:21.917Z,100834.38
2018-03-14T16:58:47.890Z,100837.85
2018-03-14T17:01:13.770Z,100835.23
2018-03-14T17:03:39.650Z,100831.34
2018-03-14T17:06:05.678Z,100833.94
2018-03-14T17:08:31.537Z,100829.62
2018-03-14T17:10:57.456Z,100841.30
2018-03-14T17:13:23.357Z,100836.09
2018-03-14T17:15:49.229Z,100837.39
2018-03-14T17:18:15.105Z,100839.98
2018-03-14T17:20:40.996Z,100835.61
2018-03-14T17:23:06.849Z,100840.39
2018-03-14T17:25:33.128Z,100836.03
2018-03-14T17:27:59.108Z,100840.37
2018-03-14T17:30:24.969Z,100847.27
2018-03-14T17:32:50.825Z,100848.13
2018-03-14T17:35:16.825Z,100849.84
2018-03-14T17:37:42.686Z,100853.28
2018-03-14T17:40:08.546Z,100855.02
2018-03-14T17:42:34.450Z,100855.88
2018-03-14T17:45:00.308Z,100861.54
2018-03-14T17:47:26.157Z,100869.75
2018-03-14T17:49:52.041Z,100856.72
2018-03-14T17:52:17.889Z,100859.32
2018-03-14T17:54:43.736Z,100866.30
2018-03-14T17:57:09.682Z,100863.67
2018-03-14T17:59:35.516Z,100868.91
2018-03-14T18:02:01.372Z,100868.05
2018-03-14T18:04:27.344Z,100866.70
2018-03-14T18:06:53.206Z,100865.81
2018-03-14T18:09:19.675Z,100865.84
2018-03-14T18:11:45.681Z,100862.88
2018-03-14T18:14:11.544Z,100871.94
2018-03-14T18:16:37.394Z,100870.63
2018-03-14T18:19:03.304Z,100875.01
2018-03-14T18:21:29.153Z,100867.61
2018-03-14T18:23:55.000Z,100869.34
2018-03-14T18:26:20.905Z,100874.59
2018-03-14T18:28:46.756Z,100871.48
2018-03-14T18:31:12.620Z,100871.92
2018-03-14T18:33:38.508Z,100871.48
2018-03-14T18:36:04.370Z,100868.45
2018-03-14T18:38:30.244Z,100869.75
2018-03-14T18:40:56.147Z,100870.60
2018-03-14T18:43:22.014Z,100868.03
2018-03-14T18:45:47.873Z,100878.01
2018-03-14T18:48:13.780Z,100864.97
2018-03-14T18:50:39.625Z,100870.61
2018-03-14T18:53:05.479Z,100870.63
2018-03-14T18:55:31.384Z,100878.47
2018-03-14T18:57:57.236Z,100873.68
2018-03-14T19:00:23.103Z,100871.95
2018-03-14T19:02:49.005Z,100862.88
2018-03-14T19:05:14.876Z,100868.48
2018-03-14T19:07:40.742Z,100868.06
2018-03-14T19:10:06.649Z,100875.03
2018-03-14T19:12:32.552Z,100873.63
2018-03-14T19:14:58.426Z,100876.72
2018-03-14T19:17:24.339Z,100876.28
2018-03-14T19:19:50.207Z,100868.38
2018-03-14T19:22:16.069Z,100873.61
2018-03-14T19:24:41.969Z,100871.48
2018-03-14T19:27:07.833Z,100873.20
2018-03-14T19:29:33.682Z,100869.30
2018-03-14T19:31:59.595Z,100868.42
2018-03-14T19:34:25.553Z,100868.41
2018-03-14T19:36:51.408Z,100875.33
2018-03-14T19:39:17.305Z,100876.64
2018-03-14T19:41:43.163Z,100875.34
2018-03-14T19:44:09.029Z,100873.98
2018-03-14T19:46:34.981Z,100874.05
2018-03-14T19:49:00.854Z,100870.51
2018-03-14T19:51:26.772Z,100861.84
2018-03-14T19:53:52.652Z,100867.95
2018-03-14T19:56:18.563Z,100871.83
2018-03-14T19:58:44.384Z,100867.52
2018-03-14T20:01:10.293Z,100863.20
2018-03-14T20:03:36.144Z,100870.55
2018-03-14T20:06:02.005Z,100865.78
2018-03-14T20:08:27.907Z,100870.95
2018-03-14T20:10:53.837Z,100870.54
2018-03-14T20:13:19.749Z,100871.88
2018-03-14T20:15:45.657Z,100863.64
2018-03-14T20:18:11.526Z,100871.42
2018-03-14T20:20:37.410Z,100870.13
2018-03-14T20:23:03.320Z,100867.08
2018-03-14T20:25:29.238Z,100864.00
2018-03-14T20:27:55.097Z,100866.66
2018-03-14T20:30:20.978Z,100863.62
2018-03-14T20:32:46.838Z,100862.31
2018-03-14T20:35:12.732Z,100870.13
2018-03-14T20:37:38.622Z,100869.24
2018-03-14T20:40:04.493Z,100862.70
2018-03-14T20:42:30.347Z,100863.56
2018-03-14T20:44:56.242Z,100860.52
2018-03-14T20:47:22.098Z,100869.63
2018-03-14T20:49:47.953Z,100868.78
2018-03-14T20:52:13.853Z,100868.78
2018-03-14T20:54:39.810Z,100864.88
2018-03-14T20:57:05.671Z,100868.77
2018-03-14T20:59:31.540Z,100869.20
2018-03-14T21:01:57.394Z,100861.41
2018-03-14T21:04:23.256Z,100857.05
2018-03-14T21:06:49.137Z,100864.94
2018-03-14T21:09:14.982Z,100864.88
2018-03-14T21:11:40.843Z,100867.03
2018-03-14T21:14:06.775Z,100864.00
2018-03-14T21:16:32.628Z,100870.10
2018-03-14T21:18:58.508Z,100867.52
2018-03-14T21:21:24.794Z,100864.93
2018-03-14T21:23:50.661Z,100863.64
2018-03-14T21:26:16.522Z,100861.88
2018-03-14T21:28:42.477Z,100862.75
2018-03-14T21:31:08.381Z,100863.19
2018-03-14T21:33:34.208Z,100862.70
2018-03-14T21:36:00.084Z,100863.95
2018-03-14T21:38:25.996Z,100866.18
2018-03-14T21:40:51.804Z,100869.67
2018-03-14T21:43:17.685Z,100867.03
2018-03-14T21:45:43.559Z,100863.94
2018-03-14T21:48:09.425Z,100860.98
2018-03-14T21:50:35.334Z,100860.09
2018-03-14T21:53:01.275Z,100855.34
2018-03-14T21:55:37.268Z,100861.81
2018-03-14T21:58:03.129Z,100865.30
2018-03-14T22:00:29.011Z,100866.63
2018-03-14T22:02:54.896Z,100860.11
2018-03-14T22:05:20.761Z,100862.69
2018-03-14T22:07:46.627Z,100857.06
2018-03-14T22:10:12.519Z,100850.09
2018-03-14T22:12:38.389Z,100860.52
2018-03-14T22:15:04.268Z,100855.22
2018-03-14T22:17:30.157Z,100862.24
2018-03-14T22:19:56.074Z,100857.37
2018-03-14T22:22:21.999Z,100857.80
2018-03-14T22:24:47.902Z,100865.19
2018-03-14T22:27:13.777Z,100857.38
2018-03-14T22:29:39.634Z,100850.45
2018-03-14T22:32:05.529Z,100850.87
2018-03-14T22:34:31.409Z,100847.42
2018-03-14T22:36:57.286Z,100846.13
2018-03-14T22:39:23.188Z,100847.80
2018-03-14T22:41:49.045Z,100846.09
2018-03-14T22:44:14.898Z,100850.80
2018-03-14T22:46:40.785Z,100847.41
2018-03-14T22:49:06.646Z,100851.22
2018-03-14T22:51:32.569Z,100850.78
2018-03-14T22:53:58.458Z,100846.48
2018-03-14T22:56:24.333Z,100852.86
2018-03-14T22:58:50.188Z,100857.22
2018-03-14T23:01:16.110Z,100855.50
2018-03-14T23:03:41.974Z,100858.90
2018-03-14T23:06:07.838Z,100850.15
2018-03-14T23:08:33.732Z,100857.90
2018-03-14T23:10:59.600Z,100849.17
2018-03-14T23:13:25.454Z,100848.80
2018-03-14T23:15:51.336Z,100850.09
2018-03-14T23:18:17.193Z,100846.56
2018-03-14T23:20:43.097Z,100843.95
2018-03-14T23:23:08.982Z,100841.40
2018-03-14T23:25:34.833Z,100843.48
2018-03-14T23:28:00.715Z,100846.47
2018-03-14T23:30:26.600Z,100843.87
2018-03-14T23:32:52.477Z,100843.02
2018-03-14T23:35:18.345Z,100840.87
2018-03-14T23:37:44.242Z,100832.22
2018-03-14T23:40:10.105Z,100839.55
2018-03-14T23:42:35.958Z,100837.83
2018-03-14T23:45:01.840Z,100833.97
2018-03-14T23:47:27.753Z,100833.96
2018-03-14T23:49:53.604Z,100840.43
2018-03-14T23:52:19.506Z,100838.77
2018-03-14T23:54:45.368Z,100842.60
2018-03-14T23:57:11.330Z,100838.23
2018-03-14T23:59:37.238Z,100828.34
